Sitiveni Tuyaga

Scout - Nadroga
21 Oct 2027
Thursday
Process

Personality

Adaptability (4) Ambition (1) Controversy (20) Loyalty (12) Pressure (12) Professionalism (6) Sportsmanship (2) Temperament (4)

Profile

Coaching Style Democratic
License Continental A
Determination 2
Man Management 7
Motivating 7
Discipline 1
Job Satisfaction
100%
Fatigue
0%
Role Scout
Wage 23.9K p/w
Contract 14.03.2030

Performance

Behaviour Good
Training Effectiveness
11%
Player Development
15%
Injury Prevention
35%
Tactical Implementation
5%

Recent Events

Assessed a player now
Assessed a player now
Attended a recruitment meeting now
Assessed a player 7d ago
Assessed a player 7d ago
Assessed a player 7d ago
Assessed a player 7d ago
Assessed a player 7d ago

Currently Monitoring

219
Player Club Status Ability Confidence Watched Last Observed Latest Vote
Solomon Onyedikachi Nasinu Active 62 / 76 40% 3 19.10.2027 -
Yacob Sayuri Maluku Utara United Active 90 / 80 40% 7 19.10.2027 -
Gavin Kwan Adsit Borneo Active 82 / 67 40% 1 19.10.2027 -
Abraham Faruk Nasinu Active 50 / 55 40% 1 19.10.2027 -
Sam Singh WaiBOP United Active 77 / 77 40% 2 18.10.2027 -
Sheva Sanggasi Persijap Active 42 / 52 40% 2 18.10.2027 -
Franck Kombobilo Macarthur FC Active 63 / 67 40% 1 18.10.2027 -
Zach Lisolajski Jubilo Iwata Active 97 / 105 40% 1 18.10.2027 -
Cahya Supriadi PSBS Biak Active 53 / 67 40% 2 16.10.2027 -
Richard Monday Ubong Vissel Kobe Active 62 / 68 40% 1 16.10.2027 -
Toshikazu Teruuchi Urawa Reds Active 62 / 72 40% 3 15.10.2027 -
Jesús Lara Jubilo Iwata Active 80 / 62 40% 4 15.10.2027 -
Josh Damevski Lautoka Active 59 / 74 40% 1 15.10.2027 -
Oliver Lewis Waitakere United Active 77 / 67 40% 1 15.10.2027 -
Owen Colvey WaiBOP United Active 60 / 61 40% 4 14.10.2027 -
Kayne Razmovski Ba Active 75 / 78 40% 2 14.10.2027 -
Nūraidar Äskerbek Taraz Active 77 / 54 40% 4 14.10.2027 -
Simione Nabenu Suva Active 61 / 51 40% 2 13.10.2027 -
Andrew Zamorano Rewa Active 96 / 80 40% 9 13.10.2027 -
Yuda Editya Madura United Active 84 / 80 40% 2 13.10.2027 -
Ryan Smith Southern United Active 53 / 68 40% 2 13.10.2027 -
Nkosinathi Nyide Ba Active 75 / 67 40% 4 12.10.2027 -
Callum Reid Southern United Active 91 / 85 40% 6 12.10.2027 -
Marcus Kouam Auckland FC Active 71 / 72 40% 1 12.10.2027 -
Sanzhar Kemelbek Taraz Active 83 / 83 40% 1 12.10.2027 -
Alex Garbett Southern United Active 74 / 77 40% 3 11.10.2027 -
Yamato Naito Ventforet Kofu Active 85 / 88 40% 10 10.10.2027 -
Ryan Kurnia Bhayangkara Presisi Active 78 / 80 40% 4 10.10.2027 -
Alfan Suaib Nadi Active 49 / 55 40% 1 10.10.2027 -
Shuhei Tokumoto Nagoya Grampus Active 107 / 121 40% 1 10.10.2027 -
Isikeli Sevanaia Rewa Active 53 / 52 40% 2 09.10.2027 -
Mohir Komilov Andijon Active 76 / 89 40% 1 09.10.2027 -
Baurzhan Islamkhan Akzhaiyk Active 84 / 106 40% 2 08.10.2027 -
Askhat Nuserbayev Akzhaiyk Active 80 / 75 40% 1 08.10.2027 -
Benjamin Machini Hapoel Kfar Saba Active 64 / 84 40% 1 08.10.2027 -
Alfie Rogers Astana Active 80 / 65 40% 1 06.10.2027 -
Iqbal Hadi PSBS Biak Active 82 / 60 40% 1 06.10.2027 -
Sūltan Shymyrkhan Shakhter Active 71 / 78 40% 9 05.10.2027 -
Bogdan Odinayev Bunyodkor Active 60 / 67 40% 1 04.10.2027 -
Le Keun Hyeong Kawasaki Frontale Active 90 / 93 40% 1 04.10.2027 -
Malual Nichola Adelaide United Active 74 / 85 40% 1 04.10.2027 -
Atonio Tuivuna Lautoka Active 50 / 64 40% 3 02.10.2027 -
Tuiba Batiratu Nadi Active 53 / 54 40% 6 30.09.2027 -
Filipe Baravilala Navua Active 68 / 66 40% 1 30.09.2027 -
Maicon Silva Semen Padang Active 73 / 78 40% 6 28.09.2027 -
Chris Van Hattum Hawke's Bay United Active 51 / 56 40% 2 28.09.2027 -
Mohammad Khanafi Persik Active 69 / 70 40% 1 28.09.2027 -
Samuel Navoce Labasa Active 68 / 45 40% 1 28.09.2027 -
Wonderson Yakubu Hapoel Raanana Active 68 / 100 40% 7 27.09.2027 -
Angus Kilkolly Auckland City Active 80 / 89 40% 8 26.09.2027 -
Riley Foxe Perth Glory Active 100 / 105 40% 5 26.09.2027 -
Frets Butuan Maluku Utara United Active 64 / 67 40% 8 26.09.2027 -
Yusuf Meilana Persik Active 82 / 68 40% 1 26.09.2027 -
Noah McCann Central Coast Mariners Active 76 / 74 40% 5 25.09.2027 -
Hojiakbar Mamurov Mashal Active 59 / 75 40% 2 25.09.2027 -
Alejandro Arana FC Tokyo Active 97 / 80 40% 1 25.09.2027 -
Israel Boatwright Adelaide United Active 79 / 95 40% 5 23.09.2027 -
Vladimir Vomenko Okzhetpes Active 101 / 76 40% 1 21.09.2027 -
Peter Antoniou Auckland FC Active 68 / 79 40% 1 21.09.2027 -
Asaeli Tunidau Tailevu Naitasiri Active 64 / 62 40% 2 20.09.2027 -
Liberato Garbett Canterbury United Active 70 / 79 40% 1 20.09.2027 -
Bayanda Zulu Aktobe Active 82 / 68 40% 1 20.09.2027 -
Kamronbek Hamroyev Mashal Active 61 / 82 40% 1 20.09.2027 -
Qobylandy Kamariden Okzhetpes Active 75 / 74 40% 4 18.09.2027 -
Habibi Jusuf Borneo Active 56 / 72 40% 3 15.09.2027 -
Bobomurod Bozorov Qizilqum Active 69 / 90 40% 4 15.09.2027 -
Bonphas Munyasa Persebaya Active 85 / 72 40% 1 15.09.2027 -
Misiwani Nairube Ba Active 62 / 45 40% 1 15.09.2027 -
Xavier Stella Kairat Active 56 / 59 40% 1 13.09.2027 -
Sekove Naivakananumi Labasa Active 66 / 57 40% 1 13.09.2027 -
Etonia Dogalau Ba Active 60 / 67 40% 12 12.09.2027 -
Ryan Reid Hawke's Bay United Active 74 / 64 40% 5 12.09.2027 -
Zane Helweh Macarthur FC Active 79 / 85 40% 14 11.09.2027 -
Aporosa Yada Labasa Active 74 / 60 40% 5 09.09.2027 -
Will McKay Macarthur FC Active 73 / 84 40% 3 08.09.2027 -
G'anisher Qodirov Shortan Active 73 / 87 40% 10 08.09.2027 -
Ravikash Krishna Tailevu Naitasiri Active 49 / 56 40% 2 08.09.2027 -
Harlan Suardi PSIM Active 76 / 82 40% 2 07.09.2027 -
Khairul Fikri Bali United Active 51 / 73 40% 1 07.09.2027 -
Eldor Adhamov Andijon Active 96 / 85 40% 4 05.09.2027 -
Andhika Ramadhani Persik Active 81 / 61 40% 1 05.09.2027 -
Ambrose Sifuna Akzhaiyk Active 58 / 84 40% 1 01.09.2027 -
Cyrus Margono Persija Active 94 / 96 40% 2 31.08.2027 -
Rocky Junior Nadi Active 59 / 64 40% 1 31.08.2027 -
Mathias MacAllister Sydney FC Active 61 / 75 40% 1 28.08.2027 -
Oscar Page Brisbane Roar Active 79 / 83 40% 3 26.08.2027 -
Francis Just Waitakere United Active 85 / 91 40% 5 25.08.2027 -
Chris Boxall Southern United Active 66 / 63 40% 1 25.08.2027 -
Theo Numberi Dewa United Active 68 / 78 40% 1 21.08.2027 -
Saar Schwartz Hapoel Acre Active 53 / 77 40% 1 20.08.2027 -
Sūltan Būsyrmanov Ordabasy Active 105 / 78 40% 3 15.08.2027 -
Daniel Atlan Maccabi Netanya Active 67 / 66 40% 6 14.08.2027 -
Lungisani Mncwabe PSIM Active 61 / 70 40% 2 12.08.2027 -
Aqil Savik Bhayangkara Presisi Active 76 / 76 40% 3 11.08.2027 -
Hamad Ahmed Taraz Active 51 / 69 40% 2 06.08.2027 -
Miswar Saputra Madura United Active 69 / 75 40% 1 05.08.2027 -
James Hilton Macarthur FC Active 68 / 75 40% 1 05.08.2027 -
Sahar Hershkovich Bnei Yehuda Active 88 / 64 40% 4 04.08.2027 -
Miraziz Mahamadaliyev Andijon Active 71 / 79 40% 7 02.08.2027 -
Tevita Waranaivalu Rewa Active 81 / 68 40% 2 31.07.2027 -
Dzaky Asraf Suva Active 65 / 75 40% 2 31.07.2027 -
Gianluca Pandeynuwu Persis Active 77 / 77 40% 1 22.07.2027 -
Joe Lacey Sydney FC Active 71 / 69 40% 2 19.07.2027 -
Iran Madura United Active 91 / 90 40% 1 19.07.2027 -
Lachlin Lambert Auckland FC Active 59 / 77 40% 1 17.07.2027 -
Muslimbek Habibullayev Navbahor Active 84 / 72 40% 8 12.07.2027 -
Patrick Joseph Ba Active 75 / 58 40% 1 12.07.2027 -
Albert Nurullayev Bukhara Active 56 / 57 40% 7 08.07.2027 -
Takumi Yasuno Vegalta Sendai Active 65 / 73 40% 7 04.07.2027 -
Hafizh Rizkianur Persija Active 42 / 44 40% 1 30.06.2027 -
Abzal Islamkhan Akzhaiyk Active 58 / 64 40% 1 26.06.2027 -
Wahyu Agong Semen Padang Active 47 / 51 40% 2 25.06.2027 -
Sibusiso Tau Zhetysu Active 70 / 58 40% 1 21.06.2027 -
Muhammadjon Toirjonov Suva Active 67 / 57 40% 1 17.06.2027 -
Jens Raven Bali United Active 70 / 82 40% 2 08.06.2027 -
Diky Indrayana Madura United Active 71 / 64 40% 1 07.06.2027 -
Mardonjon Meliyev Bukhara Active 53 / 46 40% 1 07.06.2027 -
Hokky Caraka Persita Active 76 / 82 40% 2 06.06.2027 -
Anthony Didulica Perth Glory Active 73 / 90 40% 1 03.06.2027 -
Maleli Bari Rewa Active 55 / 48 55% 1 02.06.2027 -
Farhod Fayzullaev Obod Active 43 / 57 40% 1 31.05.2027 -
Ryan Kalms Melbourne City Active 78 / 80 40% 2 30.05.2027 -
Gabriele Matanisiga Rewa Active 69 / 74 40% 1 28.05.2027 -
Isroiljon Tursunboyev Shortan Active 70 / 67 40% 3 25.05.2027 -
Lucas Scicluna Perth Glory Active 78 / 78 40% 4 24.05.2027 -
Akeimi Ralulu Labasa Active 48 / 59 40% 3 20.05.2027 -
Joeli Ranitu Suva Active 69 / 49 40% 2 20.05.2027 -
Sotiri Phillis Adelaide United Active 87 / 102 40% 2 18.05.2027 -
Sitiveni Cavuilagi Lautoka Active 64 / 60 40% 2 17.05.2027 -
Abdul Mumini Salifu Rewa Active 66 / 58 40% 1 16.05.2027 -
Vinal Prasad Navua Active 46 / 50 40% 2 15.05.2027 -
Feyzo Kasumović Adelaide United Active 83 / 74 40% 4 13.05.2027 -
Naftali Balay Akzhaiyk Active 87 / 96 40% 2 11.05.2027 -
Tim Tuiloma Canterbury United Active 65 / 75 40% 4 09.05.2027 -
Kolinio Sivoki Navua Active 58 / 47 40% 1 09.05.2027 -
Arami Manumanubhai Navua Active 51 / 62 40% 1 04.05.2027 -
Riley Dalziell Auckland FC Active 82 / 82 40% 1 29.04.2027 -
Benjamín Rojas Western Sydney Wanderers Active 66 / 67 40% 2 27.04.2027 -
Bailey O'Neil Adelaide United Active 77 / 98 40% 2 21.04.2027 -
Nathan Amanatidis Brisbane Roar Active 72 / 79 40% 6 19.04.2027 -
Jayus Hariyono Arema Active 60 / 91 40% 1 17.04.2027 -
Ryan Kitto Adelaide United Active 107 / 95 40% 3 13.04.2027 -
Regont Murati Auckland City Active 80 / 71 40% 2 13.04.2027 -
Joshua Inserra Melbourne Victory Active 89 / 80 40% 6 12.04.2027 -
Fabian Talladira Adelaide United Active 87 / 78 40% 3 11.04.2027 -
Setareki Hughes Rewa Active 72 / 62 40% 2 08.04.2027 -
Hamoudi Kalaily Bnei Sakhnin Active 69 / 66 40% 3 06.04.2027 -
Sibongakonke Nkosi Metallurg Active 54 / 79 40% 1 06.04.2027 -
Peceli Sukabula Ba Active 57 / 54 40% 1 29.03.2027 -
Favio Funes Western Sydney Wanderers Active 73 / 77 40% 1 26.03.2027 -
Askhat Nuserbayev Akzhaiyk Active 59 / 48 40% 1 17.03.2027 -
Ben van Dorssen Rewa Active 77 / 83 40% 3 16.03.2027 -
Richard Nkomo Newcastle Jets Active 75 / 80 40% 5 15.03.2027 -
Masahito Ono Nagoya Grampus Active 77 / 78 40% 2 15.03.2027 -
Matthew Charitar Navua Active 46 / 65 40% 1 09.03.2027 -
Jurato Ikeda Avispa Fukuoka Active 68 / 83 40% 1 26.02.2027 -
Adam Bell Auckland City Active 63 / 68 40% 3 25.02.2027 -
Samuel Segun Lautoka Active 65 / 69 40% 1 25.02.2027 -
Bill Van Hattum Canterbury United Active 58 / 57 40% 1 23.02.2027 -
Kristian Popovic Central Coast Mariners Active 84 / 83 40% 1 20.02.2027 -
Azizbek Abdumajidov Nasinu Active 79 / 77 40% 1 17.02.2027 -
Vincent Sithole Lautoka Active 71 / 71 40% 1 13.02.2027 -
Victor Campos Bnei Yehuda Active 54 / 91 40% 1 09.02.2027 -
Eldor Ahmedov Obod Active 86 / 70 40% 1 09.02.2027 -
Iowane Matanisiga Labasa Active 52 / 57 40% 1 06.02.2027 -
Javohir Ubaydullayev Nasaf Active 72 / 87 40% 1 03.02.2027 -
Daichi Suzuki Sagan Tosu Active 85 / 79 40% 4 01.02.2027 -
Chris Donnell Central Coast Mariners Active 88 / 90 40% 1 25.01.2027 -
Arthur Silva Shonan Bellmare Active 90 / 104 40% 1 20.01.2027 -
Alexis Alvez Arema Active 55 / 88 40% 1 20.01.2027 -
Zafarbek Akramov Mashal Active 69 / 74 40% 1 16.01.2027 -
Paris Domfeh Auckland City Active 74 / 66 40% 1 16.01.2027 -
Tokumo Kawai Jubilo Iwata Active 76 / 82 40% 1 15.01.2027 -
Siyabonga Mkhize Lautoka Active 78 / 60 40% 1 12.01.2027 -
Dhayfallah Kadri PSIM Active 71 / 65 40% 1 11.01.2027 -
Sulton Rahmatov Qizilqum Active 50 / 75 40% 1 07.01.2027 -
Azat Abiken Akzhaiyk Active 79 / 79 40% 2 06.01.2027 -
Iosefo Verevou Tailevu Naitasiri Active 71 / 64 40% 1 06.01.2027 -
Liam Karagula Maccabi Haifa Active 85 / 87 40% 5 28.12.2026 -
Asilbek Anvarov Shortan Active 80 / 60 40% 1 24.12.2026 -
Chris Payne WaiBOP United Active 51 / 55 40% 2 13.12.2026 -
Saar Elkayam Hapoel Haifa Active 68 / 88 40% 1 09.12.2026 -
Beni Feldman Maccabi Netanya Active 60 / 86 40% 1 09.12.2026 -
Cameron Tuiloma Canterbury United Active 50 / 71 40% 1 08.12.2026 -
Roy Buganim Hapoel Kfar Saba Active 51 / 72 40% 1 07.12.2026 -
Davron To'laganov Pakhtakor Active 61 / 77 40% 2 04.12.2026 -
Abdul Rahman PSM Active 59 / 69 40% 2 23.11.2026 -
Kishan Sami Ba Active 80 / 71 40% 1 16.11.2026 -
Shodiyor Shodiboyev Lokomotiv Active 79 / 99 40% 1 13.11.2026 -
Shivam Shandil Nasinu Active 69 / 47 40% 1 10.11.2026 -
Sitiveni Rakai Labasa Active 59 / 48 40% 1 04.11.2026 -
Zachary De Jesus Sydney FC Active 81 / 94 40% 2 31.10.2026 -
Ryan McCowatt Hawke's Bay United Active 68 / 71 40% 1 30.10.2026 -
Epeli Leiroti Lautoka Active 70 / 60 40% 1 28.10.2026 -
Rahul Naresh Ba Active 52 / 55 40% 1 22.10.2026 -
Reef Amsalem Hapoel Acre Active 80 / 69 40% 1 16.10.2026 -
Josaia Sela Rewa Active 52 / 78 40% 3 05.10.2026 -
Tim Van Hattum Canterbury United Active 75 / 58 40% 1 03.10.2026 -
Ulug'bek Xoliqov Shortan Active 60 / 69 40% 1 03.10.2026 -
Jordan Vale Team Wellington Active 75 / 62 40% 1 29.09.2026 -
Michael Waine Southern United Active 71 / 73 40% 1 24.09.2026 -
Tim Cacace Hawke's Bay United Active 60 / 51 40% 1 17.09.2026 -
Rayhan Utina Borneo Active 65 / 44 40% 1 16.09.2026 -
Hayata Ishii Vegalta Sendai Active 67 / 75 40% 1 14.09.2026 -
Ali Mekawir Navua Active 65 / 80 40% 1 08.09.2026 -
Alex Stamatelopoulos Waitakere United Active 76 / 76 40% 2 07.09.2026 -
Mihiro Sato Kashima Antlers Active 82 / 72 40% 1 05.09.2026 -
Sikeli Tuiloma Tailevu Naitasiri Active 56 / 47 40% 1 02.09.2026 -
Jubayer Bushnak Bnei Sakhnin Active 98 / 69 40% 1 23.08.2026 -
Muhriddin Fazliddinov Kokand 1912 Active 66 / 82 40% 1 21.08.2026 -
Ulug'bek Sunnatov Shortan Active 87 / 77 40% 1 20.08.2026 -
Syahrul Lasinari PSM Active 56 / 87 40% 1 19.08.2026 -
Dimas Roni Saputra Semen Padang Active 76 / 70 40% 1 05.08.2026 -
Shalev Gindi Bnei Yehuda Active 50 / 56 40% 1 04.08.2026 -
Dony Tri Pamungkas Persija Active 92 / 79 40% 1 04.08.2026 -
Dias Lesbek Taraz Active 86 / 69 40% 1 02.08.2026 -
Yoyo Aviv Maccabi Tel Aviv Active 56 / 84 40% 1 02.08.2026 -
Shaker Abu Husein Bnei Sakhnin Active 88 / 90 40% 1 02.08.2026 -
Farhod Rahmatov Qizilqum Active 75 / 99 40% 1 01.08.2026 -